Terminal Aerodrome Forecast
Issued by NWS

Home | Current Version | Previous Version | Text Only | Print | Product List | Glossary On
Versions: 1 2 3 4 5 6 7 8 9 10 11 12 13 14 15 16 17 18 19 20
772
FTUS43 KILX 292327
TAFCMI
TAF
KCMI 292327Z 3000/3024 28016G24KT P6SM VCTS SCT080CB BKN150
     FM300200 29007KT P6SM FEW200
     FM301500 26012KT P6SM FEW250
     FM301800 26014G22KT P6SM BKN060=

USA.gov is the U.S. government's official web portal to all federal, state and local government web resources and services.